Fullerton, CA

12:15 PM PDT on April 21, 2015 (GMT -0700)
John Wayne-Orange County | | Change Station
CLOSE
Current Station
Airport
Location: Santa Ana,
Elevation: 56 ft
Nearby Weather Stations

Elev 56 ft 33.68 °N, 117.87 °W | Updated 22 minutes ago

Overcast
Overcast
64 °F
Feels Like 64 °F
N
7
Wind Variable Wind from SSW

Today
High -- | Low -- °F
--% Chance of Precip.
Yesterday
High -- | Low -- °F
Precip. -- in
6:13 AM 7:27 PM
Waxing Crescent, 12% visible
Pressure 29.96 in
Visibility 10.0 miles
Clouds Overcast 3900 ft
Dew Point 45 °F
Humidity 50%
Rainfall 0.00 in
Snow Depth Not available.
UV 3 out of 12
Pollen 6.70 out of 12
Air Quality Not available.
Flu Activity Sporadic
METAR KSNA 211853Z 20006KT 10SM OVC039 18/07 A2996 RMK AO2 SLP145 T01780072

More Conditions Fewer Conditions

Pressure 29.96 in
Visibility 10.0 miles
Clouds Overcast 3900 ft
Dew Point 45 °F
Humidity 50%
Rainfall 0.00 in
Snow Depth Not available.
UV 3 out of 12
Pollen 6.70 out of 12
Air Quality Not available.
Flu Activity Sporadic
METAR KSNA 211853Z 20006KT 10SM OVC039 18/07 A2996 RMK AO2 SLP145 T01780072

More Conditions Fewer Conditions

10-Day Weather Forecast

Almanac

Astronomy

Apr. 21, 2015 Rise Set
Actual Time
Civil Twilight
Nautical Twilight
Astronomical Twilight
Moon
Length of Visible Light
Length of Day
Tomorrow will be .
, % of the Moon is Illuminated

Today's Extremes

State Highs State Lows

Community

WunderPhotos

Upload Photos

1,815,491 photos uploaded!

WunderBlogs® & News

Nearby

Air Quality

  Air Quality AQ Index Pollutant
Not available.

Snow Depth

Station Depth Elevation

Earthquake Activity

City Distance Mag. Time & Date
Minimum magnitude displayed is 2.5.

Coastal Water Temperatures

Place Temperature

Stations

Nearby Weather Stations

Station Location Temp. Windchill Dew Point Humidity Wind Precip. Elev Updated Type